sensor_id;sensor_type;location;lat;lon;timestamp;pressure;altitude;pressure_sealevel;temperature;humidity
58072;BME280;60383;46.626;18.866;2022-08-19T00:01:42;99806.34;;;26.21;50.40
58072;BME280;60383;46.626;18.866;2022-08-19T00:04:10;99800.47;;;26.22;51.90
58072;BME280;60383;46.626;18.866;2022-08-19T00:06:37;99807.16;;;26.16;51.80
58072;BME280;60383;46.626;18.866;2022-08-19T00:09:05;99802.97;;;26.19;51.27
58072;BME280;60383;46.626;18.866;2022-08-19T00:11:30;99792.59;;;26.14;50.67
58072;BME280;60383;46.626;18.866;2022-08-19T00:13:56;99786.41;;;26.12;51.26
58072;BME280;60383;46.626;18.866;2022-08-19T00:16:22;99785.03;;;26.25;50.14
58072;BME280;60383;46.626;18.866;2022-08-19T00:18:47;99786.97;;;26.29;50.14
58072;BME280;60383;46.626;18.866;2022-08-19T00:21:13;99781.94;;;26.31;48.95
58072;BME280;60383;46.626;18.866;2022-08-19T00:23:39;99773.53;;;26.21;49.88
58072;BME280;60383;46.626;18.866;2022-08-19T00:26:06;99770.44;;;26.23;50.45
58072;BME280;60383;46.626;18.866;2022-08-19T00:28:31;99771.84;;;26.25;50.51
58072;BME280;60383;46.626;18.866;2022-08-19T00:30:58;99773.19;;;26.12;51.04
58072;BME280;60383;46.626;18.866;2022-08-19T00:33:23;99773.47;;;26.11;50.65
58072;BME280;60383;46.626;18.866;2022-08-19T00:35:49;99770.94;;;26.04;51.03
58072;BME280;60383;46.626;18.866;2022-08-19T00:38:14;99767.53;;;26.02;52.99
58072;BME280;60383;46.626;18.866;2022-08-19T00:40:42;99766.97;;;26.00;54.32
58072;BME280;60383;46.626;18.866;2022-08-19T00:43:11;99751.00;;;26.01;54.96
58072;BME280;60383;46.626;18.866;2022-08-19T00:45:38;99755.75;;;26.00;55.24
58072;BME280;60383;46.626;18.866;2022-08-19T00:48:06;99761.31;;;25.84;55.78
58072;BME280;60383;46.626;18.866;2022-08-19T00:50:33;99764.38;;;25.78;56.44
58072;BME280;60383;46.626;18.866;2022-08-19T00:52:59;99756.84;;;25.83;55.73
58072;BME280;60383;46.626;18.866;2022-08-19T00:55:30;99760.47;;;25.79;55.28
58072;BME280;60383;46.626;18.866;2022-08-19T00:57:58;99762.97;;;25.75;57.55
58072;BME280;60383;46.626;18.866;2022-08-19T01:00:27;99763.84;;;25.81;57.38
58072;BME280;60383;46.626;18.866;2022-08-19T01:02:53;99765.50;;;25.72;57.29
58072;BME280;60383;46.626;18.866;2022-08-19T01:05:20;99758.75;;;25.73;56.04
58072;BME280;60383;46.626;18.866;2022-08-19T01:07:47;99757.03;;;25.61;55.63
58072;BME280;60383;46.626;18.866;2022-08-19T01:10:17;99759.28;;;25.64;53.60
58072;BME280;60383;46.626;18.866;2022-08-19T01:12:45;99763.50;;;25.67;55.38
58072;BME280;60383;46.626;18.866;2022-08-19T01:15:13;99750.06;;;25.64;54.88
58072;BME280;60383;46.626;18.866;2022-08-19T01:17:39;99756.19;;;25.66;54.16
58072;BME280;60383;46.626;18.866;2022-08-19T01:20:06;99759.22;;;25.54;54.31
58072;BME280;60383;46.626;18.866;2022-08-19T01:22:37;99767.34;;;25.50;53.62
58072;BME280;60383;46.626;18.866;2022-08-19T01:25:06;99767.63;;;25.49;52.78
58072;BME280;60383;46.626;18.866;2022-08-19T01:27:38;99768.75;;;25.48;53.30
58072;BME280;60383;46.626;18.866;2022-08-19T01:30:05;99766.50;;;25.50;52.82
58072;BME280;60383;46.626;18.866;2022-08-19T01:32:31;99760.91;;;25.50;54.30
58072;BME280;60383;46.626;18.866;2022-08-19T01:34:57;99758.09;;;25.50;55.18
58072;BME280;60383;46.626;18.866;2022-08-19T01:37:23;99747.72;;;25.45;55.57
58072;BME280;60383;46.626;18.866;2022-08-19T01:39:48;99757.75;;;25.36;56.08
58072;BME280;60383;46.626;18.866;2022-08-19T01:42:14;99749.03;;;25.32;55.51
58072;BME280;60383;46.626;18.866;2022-08-19T01:44:40;99754.34;;;25.34;55.24
58072;BME280;60383;46.626;18.866;2022-08-19T01:47:06;99747.59;;;25.30;53.68
58072;BME280;60383;46.626;18.866;2022-08-19T01:49:32;99755.19;;;25.34;54.62
58072;BME280;60383;46.626;18.866;2022-08-19T01:51:59;99747.13;;;25.38;55.05
58072;BME280;60383;46.626;18.866;2022-08-19T01:54:26;99733.88;;;25.33;57.28
58072;BME280;60383;46.626;18.866;2022-08-19T01:56:52;99728.56;;;25.37;57.04
58072;BME280;60383;46.626;18.866;2022-08-19T01:59:20;99725.22;;;25.35;57.13
58072;BME280;60383;46.626;18.866;2022-08-19T02:01:47;99714.56;;;25.32;57.85
58072;BME280;60383;46.626;18.866;2022-08-19T02:04:12;99714.81;;;25.25;57.55
58072;BME280;60383;46.626;18.866;2022-08-19T02:06:38;99707.22;;;25.20;57.38
58072;BME280;60383;46.626;18.866;2022-08-19T02:09:05;99709.22;;;25.25;56.35
58072;BME280;60383;46.626;18.866;2022-08-19T02:11:31;99713.13;;;25.24;55.19
58072;BME280;60383;46.626;18.866;2022-08-19T02:13:59;99712.56;;;25.27;56.11
58072;BME280;60383;46.626;18.866;2022-08-19T02:16:25;99708.31;;;25.19;55.60
58072;BME280;60383;46.626;18.866;2022-08-19T02:18:51;99707.72;;;25.12;55.75
58072;BME280;60383;46.626;18.866;2022-08-19T02:21:17;99718.34;;;25.05;57.65
58072;BME280;60383;46.626;18.866;2022-08-19T02:23:43;99718.03;;;25.01;57.72
58072;BME280;60383;46.626;18.866;2022-08-19T02:26:09;99713.50;;;24.95;57.00
58072;BME280;60383;46.626;18.866;2022-08-19T02:28:35;99709.50;;;24.81;58.29
58072;BME280;60383;46.626;18.866;2022-08-19T02:31:01;99702.78;;;24.82;58.48
58072;BME280;60383;46.626;18.866;2022-08-19T02:33:27;99708.69;;;24.85;59.54
58072;BME280;60383;46.626;18.866;2022-08-19T02:35:52;99706.13;;;24.79;59.65
58072;BME280;60383;46.626;18.866;2022-08-19T02:38:18;99712.56;;;24.74;59.58
58072;BME280;60383;46.626;18.866;2022-08-19T02:40:53;99723.63;;;24.64;59.81
58072;BME280;60383;46.626;18.866;2022-08-19T02:43:19;99718.00;;;24.59;60.57
58072;BME280;60383;46.626;18.866;2022-08-19T02:45:45;99726.91;;;24.55;60.70
58072;BME280;60383;46.626;18.866;2022-08-19T02:48:10;99719.31;;;24.51;59.97
58072;BME280;60383;46.626;18.866;2022-08-19T02:50:40;99720.19;;;24.51;59.14
58072;BME280;60383;46.626;18.866;2022-08-19T02:53:05;99724.34;;;24.49;59.39
58072;BME280;60383;46.626;18.866;2022-08-19T02:55:32;99723.81;;;24.52;59.85
58072;BME280;60383;46.626;18.866;2022-08-19T02:57:57;99729.06;;;24.43;59.59
58072;BME280;60383;46.626;18.866;2022-08-19T03:00:22;99734.13;;;24.46;59.37
58072;BME280;60383;46.626;18.866;2022-08-19T03:02:49;99736.63;;;24.43;59.67
58072;BME280;60383;46.626;18.866;2022-08-19T03:05:14;99748.56;;;24.33;59.64
58072;BME280;60383;46.626;18.866;2022-08-19T03:07:40;99751.38;;;24.33;59.63
58072;BME280;60383;46.626;18.866;2022-08-19T03:10:05;99743.00;;;24.38;59.29
58072;BME280;60383;46.626;18.866;2022-08-19T03:12:30;99740.22;;;24.38;59.48
58072;BME280;60383;46.626;18.866;2022-08-19T03:14:56;99748.00;;;24.36;59.88
58072;BME280;60383;46.626;18.866;2022-08-19T03:17:21;99752.19;;;24.33;59.81
58072;BME280;60383;46.626;18.866;2022-08-19T03:19:47;99755.81;;;24.34;60.61
58072;BME280;60383;46.626;18.866;2022-08-19T03:22:12;99753.31;;;24.32;60.29
58072;BME280;60383;46.626;18.866;2022-08-19T03:24:38;99746.28;;;24.30;59.66
58072;BME280;60383;46.626;18.866;2022-08-19T03:27:03;99754.94;;;24.28;59.29
58072;BME280;60383;46.626;18.866;2022-08-19T03:29:30;99756.00;;;24.22;60.40
58072;BME280;60383;46.626;18.866;2022-08-19T03:31:59;99757.13;;;24.21;59.66
58072;BME280;60383;46.626;18.866;2022-08-19T03:34:27;99749.81;;;24.20;59.33
58072;BME280;60383;46.626;18.866;2022-08-19T03:36:53;99751.53;;;24.21;59.56
58072;BME280;60383;46.626;18.866;2022-08-19T03:39:19;99749.25;;;24.18;60.06
58072;BME280;60383;46.626;18.866;2022-08-19T03:41:45;99750.09;;;24.18;60.02
58072;BME280;60383;46.626;18.866;2022-08-19T03:44:11;99757.38;;;24.19;59.89
58072;BME280;60383;46.626;18.866;2022-08-19T03:46:36;99755.63;;;24.13;60.17
58072;BME280;60383;46.626;18.866;2022-08-19T03:49:02;99755.63;;;24.13;60.20
58072;BME280;60383;46.626;18.866;2022-08-19T03:51:34;99756.47;;;24.14;59.94
58072;BME280;60383;46.626;18.866;2022-08-19T03:54:00;99753.06;;;24.06;60.08
58072;BME280;60383;46.626;18.866;2022-08-19T03:56:26;99760.97;;;24.15;59.68
58072;BME280;60383;46.626;18.866;2022-08-19T03:58:52;99765.63;;;24.04;60.86
58072;BME280;60383;46.626;18.866;2022-08-19T04:01:19;99772.31;;;24.03;61.05
58072;BME280;60383;46.626;18.866;2022-08-19T04:03:45;99770.84;;;23.95;60.55
58072;BME280;60383;46.626;18.866;2022-08-19T04:08:37;99780.81;;;23.91;60.27
58072;BME280;60383;46.626;18.866;2022-08-19T04:11:06;99774.84;;;24.04;60.05
58072;BME280;60383;46.626;18.866;2022-08-19T04:13:31;99776.06;;;24.14;60.87
58072;BME280;60383;46.626;18.866;2022-08-19T04:15:56;99779.69;;;24.14;60.78
58072;BME280;60383;46.626;18.866;2022-08-19T04:18:21;99784.66;;;24.07;61.41
58072;BME280;60383;46.626;18.866;2022-08-19T04:20:47;99791.63;;;24.04;60.68
58072;BME280;60383;46.626;18.866;2022-08-19T04:23:13;99797.47;;;24.03;60.09
58072;BME280;60383;46.626;18.866;2022-08-19T04:25:40;99798.22;;;23.93;60.99
58072;BME280;60383;46.626;18.866;2022-08-19T04:28:05;99803.53;;;23.95;60.80
58072;BME280;60383;46.626;18.866;2022-08-19T04:30:30;99806.25;;;23.89;61.03
58072;BME280;60383;46.626;18.866;2022-08-19T04:32:56;99805.31;;;23.84;60.45
58072;BME280;60383;46.626;18.866;2022-08-19T04:35:21;99802.69;;;23.94;60.08
58072;BME280;60383;46.626;18.866;2022-08-19T04:37:47;99803.34;;;24.01;60.02
58072;BME280;60383;46.626;18.866;2022-08-19T04:40:12;99805.03;;;24.02;59.70
58072;BME280;60383;46.626;18.866;2022-08-19T04:42:56;99808.19;;;24.11;59.16
58072;BME280;60383;46.626;18.866;2022-08-19T04:45:21;99814.69;;;24.17;58.69
58072;BME280;60383;46.626;18.866;2022-08-19T04:47:47;99820.59;;;24.20;58.38
58072;BME280;60383;46.626;18.866;2022-08-19T04:50:13;99821.53;;;24.31;57.78
58072;BME280;60383;46.626;18.866;2022-08-19T04:52:38;99824.44;;;24.36;58.54
58072;BME280;60383;46.626;18.866;2022-08-19T04:55:08;99825.66;;;24.51;59.31
58072;BME280;60383;46.626;18.866;2022-08-19T04:57:33;99821.88;;;24.62;58.62
58072;BME280;60383;46.626;18.866;2022-08-19T04:59:58;99830.25;;;24.62;58.00
58072;BME280;60383;46.626;18.866;2022-08-19T05:02:24;99825.63;;;24.73;57.25
58072;BME280;60383;46.626;18.866;2022-08-19T05:04:50;99829.88;;;24.81;56.80
58072;BME280;60383;46.626;18.866;2022-08-19T05:07:15;99821.59;;;24.91;56.90
58072;BME280;60383;46.626;18.866;2022-08-19T05:09:41;99821.13;;;25.04;57.02
58072;BME280;60383;46.626;18.866;2022-08-19T05:12:06;99819.75;;;25.07;56.85
58072;BME280;60383;46.626;18.866;2022-08-19T05:14:31;99823.69;;;25.11;56.42
58072;BME280;60383;46.626;18.866;2022-08-19T05:16:57;99820.63;;;25.13;56.38
58072;BME280;60383;46.626;18.866;2022-08-19T05:19:22;99815.31;;;25.16;56.14
58072;BME280;60383;46.626;18.866;2022-08-19T05:22:06;99811.72;;;25.21;55.87
58072;BME280;60383;46.626;18.866;2022-08-19T05:24:50;99808.13;;;25.31;54.80
58072;BME280;60383;46.626;18.866;2022-08-19T05:27:15;99807.56;;;25.29;54.83
58072;BME280;60383;46.626;18.866;2022-08-19T05:29:40;99814.28;;;25.28;54.38
58072;BME280;60383;46.626;18.866;2022-08-19T05:32:06;99808.75;;;25.38;54.19
58072;BME280;60383;46.626;18.866;2022-08-19T05:34:35;99812.16;;;25.45;54.00
58072;BME280;60383;46.626;18.866;2022-08-19T05:37:03;99815.03;;;25.56;53.84
58072;BME280;60383;46.626;18.866;2022-08-19T05:39:30;99805.53;;;25.62;52.63
58072;BME280;60383;46.626;18.866;2022-08-19T05:41:57;99811.72;;;25.64;52.20
58072;BME280;60383;46.626;18.866;2022-08-19T05:44:24;99809.78;;;25.70;51.71
58072;BME280;60383;46.626;18.866;2022-08-19T05:46:50;99809.78;;;25.75;52.20
58072;BME280;60383;46.626;18.866;2022-08-19T05:49:20;99812.88;;;25.78;52.09
58072;BME280;60383;46.626;18.866;2022-08-19T05:51:46;99813.25;;;25.92;51.44
58072;BME280;60383;46.626;18.866;2022-08-19T05:54:11;99806.00;;;26.02;49.72
58072;BME280;60383;46.626;18.866;2022-08-19T05:56:39;99804.28;;;26.01;49.75
58072;BME280;60383;46.626;18.866;2022-08-19T05:59:05;99805.22;;;26.11;49.74
58072;BME280;60383;46.626;18.866;2022-08-19T06:01:33;99804.63;;;26.14;50.59
58072;BME280;60383;46.626;18.866;2022-08-19T06:03:59;99813.91;;;26.20;49.67
58072;BME280;60383;46.626;18.866;2022-08-19T06:06:25;99810.00;;;26.31;48.76
58072;BME280;60383;46.626;18.866;2022-08-19T06:08:50;99807.47;;;26.25;49.55
58072;BME280;60383;46.626;18.866;2022-08-19T06:11:23;99810.00;;;26.31;49.35
58072;BME280;60383;46.626;18.866;2022-08-19T06:13:50;99816.19;;;26.28;50.68
58072;BME280;60383;46.626;18.866;2022-08-19T06:16:16;99817.31;;;26.27;50.93
58072;BME280;60383;46.626;18.866;2022-08-19T06:18:51;99811.97;;;26.36;49.37
58072;BME280;60383;46.626;18.866;2022-08-19T06:21:18;99819.88;;;26.44;49.87
58072;BME280;60383;46.626;18.866;2022-08-19T06:23:44;99821.00;;;26.59;49.77
58072;BME280;60383;46.626;18.866;2022-08-19T06:26:13;99824.69;;;26.75;48.52
58072;BME280;60383;46.626;18.866;2022-08-19T06:28:39;99839.31;;;26.82;48.61
58072;BME280;60383;46.626;18.866;2022-08-19T06:31:11;99829.75;;;26.83;48.45
58072;BME280;60383;46.626;18.866;2022-08-19T06:33:39;99837.06;;;26.89;48.23
58072;BME280;60383;46.626;18.866;2022-08-19T06:36:04;99823.84;;;27.10;46.98
58072;BME280;60383;46.626;18.866;2022-08-19T06:38:30;99825.50;;;27.27;47.33
58072;BME280;60383;46.626;18.866;2022-08-19T06:41:05;99820.16;;;27.36;47.01
58072;BME280;60383;46.626;18.866;2022-08-19T06:43:31;99812.84;;;27.50;46.18
58072;BME280;60383;46.626;18.866;2022-08-19T06:45:56;99815.88;;;27.64;45.54
58072;BME280;60383;46.626;18.866;2022-08-19T06:48:21;99816.41;;;27.71;45.73
58072;BME280;60383;46.626;18.866;2022-08-19T06:50:46;99812.97;;;27.85;45.21
58072;BME280;60383;46.626;18.866;2022-08-19T06:53:14;99814.59;;;28.07;45.13
58072;BME280;60383;46.626;18.866;2022-08-19T06:55:40;99811.97;;;28.26;43.44
58072;BME280;60383;46.626;18.866;2022-08-19T06:58:06;99816.47;;;28.27;44.29
58072;BME280;60383;46.626;18.866;2022-08-19T07:00:31;99827.34;;;28.44;44.41
58072;BME280;60383;46.626;18.866;2022-08-19T07:02:57;99816.56;;;28.56;43.57
58072;BME280;60383;46.626;18.866;2022-08-19T07:05:23;99818.66;;;28.80;42.49
58072;BME280;60383;46.626;18.866;2022-08-19T07:07:49;99822.78;;;28.93;42.88
58072;BME280;60383;46.626;18.866;2022-08-19T07:10:14;99816.69;;;29.10;41.98
58072;BME280;60383;46.626;18.866;2022-08-19T07:12:40;99813.78;;;29.20;42.08
58072;BME280;60383;46.626;18.866;2022-08-19T07:15:06;99819.25;;;29.41;42.07
58072;BME280;60383;46.626;18.866;2022-08-19T07:17:33;99816.31;;;29.51;41.16
58072;BME280;60383;46.626;18.866;2022-08-19T07:20:03;99816.97;;;29.67;40.79
58072;BME280;60383;46.626;18.866;2022-08-19T07:22:29;99812.03;;;29.78;40.77
58072;BME280;60383;46.626;18.866;2022-08-19T07:24:55;99811.06;;;29.88;40.61
58072;BME280;60383;46.626;18.866;2022-08-19T07:27:21;99812.19;;;29.92;40.08
58072;BME280;60383;46.626;18.866;2022-08-19T07:29:46;99814.56;;;30.04;40.02
58072;BME280;60383;46.626;18.866;2022-08-19T07:32:11;99810.97;;;30.17;39.75
58072;BME280;60383;46.626;18.866;2022-08-19T07:34:37;99816.19;;;30.29;39.50
58072;BME280;60383;46.626;18.866;2022-08-19T07:37:03;99810.78;;;30.33;38.83
58072;BME280;60383;46.626;18.866;2022-08-19T07:39:30;99809.31;;;30.35;38.99
58072;BME280;60383;46.626;18.866;2022-08-19T07:41:56;99811.16;;;30.45;39.23
58072;BME280;60383;46.626;18.866;2022-08-19T07:44:22;99814.16;;;30.54;38.30
58072;BME280;60383;46.626;18.866;2022-08-19T07:46:52;99818.19;;;30.48;38.60
58072;BME280;60383;46.626;18.866;2022-08-19T07:49:17;99812.53;;;30.67;39.21
58072;BME280;60383;46.626;18.866;2022-08-19T07:51:52;99809.47;;;30.82;37.88
58072;BME280;60383;46.626;18.866;2022-08-19T07:54:18;99817.97;;;30.96;37.80
58072;BME280;60383;46.626;18.866;2022-08-19T07:56:44;99817.25;;;31.10;37.19
58072;BME280;60383;46.626;18.866;2022-08-19T07:59:09;99814.09;;;31.25;37.33
58072;BME280;60383;46.626;18.866;2022-08-19T08:01:35;99818.22;;;31.33;36.62
58072;BME280;60383;46.626;18.866;2022-08-19T08:04:00;99810.16;;;31.54;36.83
58072;BME280;60383;46.626;18.866;2022-08-19T08:06:44;99813.97;;;31.63;36.23
58072;BME280;60383;46.626;18.866;2022-08-19T08:09:31;99817.84;;;31.67;36.17
58072;BME280;60383;46.626;18.866;2022-08-19T08:11:58;99819.13;;;31.89;36.05
58072;BME280;60383;46.626;18.866;2022-08-19T08:14:27;99817.31;;;32.07;34.97
58072;BME280;60383;46.626;18.866;2022-08-19T08:16:52;99808.69;;;32.12;35.41
58072;BME280;60383;46.626;18.866;2022-08-19T08:19:19;99803.44;;;32.20;35.21
58072;BME280;60383;46.626;18.866;2022-08-19T08:21:45;99811.41;;;32.31;35.45
58072;BME280;60383;46.626;18.866;2022-08-19T08:24:11;99810.34;;;32.41;34.63
58072;BME280;60383;46.626;18.866;2022-08-19T08:26:37;99815.13;;;32.55;34.45
58072;BME280;60383;46.626;18.866;2022-08-19T08:29:02;99810.88;;;32.66;34.42
58072;BME280;60383;46.626;18.866;2022-08-19T08:31:28;99810.19;;;32.83;34.69
58072;BME280;60383;46.626;18.866;2022-08-19T08:33:53;99798.81;;;32.97;33.75
58072;BME280;60383;46.626;18.866;2022-08-19T08:36:19;99803.56;;;33.10;33.17
58072;BME280;60383;46.626;18.866;2022-08-19T08:38:44;99798.94;;;33.23;33.26
58072;BME280;60383;46.626;18.866;2022-08-19T08:43:39;99794.13;;;33.55;32.48
58072;BME280;60383;46.626;18.866;2022-08-19T08:50:59;99796.09;;;33.95;32.06
58072;BME280;60383;46.626;18.866;2022-08-19T08:53:27;99799.00;;;34.13;31.26
58072;BME280;60383;46.626;18.866;2022-08-19T08:55:52;99797.31;;;34.29;31.07
58072;BME280;60383;46.626;18.866;2022-08-19T08:58:25;99795.34;;;34.47;30.29
58072;BME280;60383;46.626;18.866;2022-08-19T09:00:53;99793.03;;;34.58;30.23
58072;BME280;60383;46.626;18.866;2022-08-19T09:03:20;99797.03;;;34.75;29.60
58072;BME280;60383;46.626;18.866;2022-08-19T09:09:32;99775.75;;;34.98;29.54
58072;BME280;60383;46.626;18.866;2022-08-19T09:11:35;99773.41;;;35.18;28.96
58072;BME280;60383;46.626;18.866;2022-08-19T09:16:30;99762.69;;;35.62;28.85
58072;BME280;60383;46.626;18.866;2022-08-19T09:18:56;99770.13;;;35.76;28.07
58072;BME280;60383;46.626;18.866;2022-08-19T09:21:24;99767.13;;;35.72;27.76
58072;BME280;60383;46.626;18.866;2022-08-19T09:23:51;99769.63;;;35.74;28.00
58072;BME280;60383;46.626;18.866;2022-08-19T09:26:17;99768.91;;;36.16;27.10
58072;BME280;60383;46.626;18.866;2022-08-19T09:28:44;99763.56;;;35.84;26.65
58072;BME280;60383;46.626;18.866;2022-08-19T09:31:10;99768.38;;;36.43;27.03
58072;BME280;60383;46.626;18.866;2022-08-19T09:33:36;99775.09;;;36.18;26.90
58072;BME280;60383;46.626;18.866;2022-08-19T09:36:08;99758.56;;;36.53;26.10
58072;BME280;60383;46.626;18.866;2022-08-19T09:38:34;99758.75;;;36.69;25.61
58072;BME280;60383;46.626;18.866;2022-08-19T09:41:03;99757.94;;;36.48;25.53
58072;BME280;60383;46.626;18.866;2022-08-19T09:43:29;99763.28;;;36.49;25.69
58072;BME280;60383;46.626;18.866;2022-08-19T09:45:54;99761.97;;;36.47;25.33
58072;BME280;60383;46.626;18.866;2022-08-19T09:48:20;99760.84;;;36.18;25.06
58072;BME280;60383;46.626;18.866;2022-08-19T09:50:46;99757.13;;;36.81;24.27
58072;BME280;60383;46.626;18.866;2022-08-19T09:53:11;99751.41;;;37.02;24.77
58072;BME280;60383;46.626;18.866;2022-08-19T09:55:41;99746.19;;;36.49;25.58
58072;BME280;60383;46.626;18.866;2022-08-19T09:58:06;99757.66;;;36.40;25.42
58072;BME280;60383;46.626;18.866;2022-08-19T10:00:31;99754.53;;;36.54;25.20
58072;BME280;60383;46.626;18.866;2022-08-19T10:02:57;99743.47;;;37.20;24.70
58072;BME280;60383;46.626;18.866;2022-08-19T10:05:22;99746.75;;;37.43;24.48
58072;BME280;60383;46.626;18.866;2022-08-19T10:08:06;99734.81;;;37.53;24.30
58072;BME280;60383;46.626;18.866;2022-08-19T10:10:34;99729.69;;;37.71;24.24
58072;BME280;60383;46.626;18.866;2022-08-19T10:12:59;99741.28;;;37.38;24.27
58072;BME280;60383;46.626;18.866;2022-08-19T10:15:25;99740.88;;;37.77;24.13
58072;BME280;60383;46.626;18.866;2022-08-19T10:17:50;99734.81;;;37.78;24.00
58072;BME280;60383;46.626;18.866;2022-08-19T10:20:15;99737.41;;;38.08;24.04
58072;BME280;60383;46.626;18.866;2022-08-19T10:22:41;99732.50;;;37.22;25.15
58072;BME280;60383;46.626;18.866;2022-08-19T10:25:07;99732.44;;;37.80;24.88
58072;BME280;60383;46.626;18.866;2022-08-19T10:27:32;99733.09;;;38.14;23.83
58072;BME280;60383;46.626;18.866;2022-08-19T10:29:58;99729.72;;;37.96;23.21
58072;BME280;60383;46.626;18.866;2022-08-19T10:32:23;99732.78;;;38.03;23.23
58072;BME280;60383;46.626;18.866;2022-08-19T10:34:50;99730.53;;;37.97;23.21
58072;BME280;60383;46.626;18.866;2022-08-19T10:37:16;99746.44;;;37.23;25.38
58072;BME280;60383;46.626;18.866;2022-08-19T10:39:45;99734.94;;;37.82;24.71
58072;BME280;60383;46.626;18.866;2022-08-19T10:42:12;99740.34;;;38.24;23.15
58072;BME280;60383;46.626;18.866;2022-08-19T10:44:38;99746.56;;;38.14;23.07
58072;BME280;60383;46.626;18.866;2022-08-19T10:47:04;99745.50;;;38.18;22.67
58072;BME280;60383;46.626;18.866;2022-08-19T10:49:30;99744.88;;;38.25;21.72
58072;BME280;60383;46.626;18.866;2022-08-19T10:51:57;99737.47;;;38.24;22.05
58072;BME280;60383;46.626;18.866;2022-08-19T10:54:41;99740.81;;;37.85;22.57
58072;BME280;60383;46.626;18.866;2022-08-19T10:57:24;99730.50;;;38.09;21.93
58072;BME280;60383;46.626;18.866;2022-08-19T10:59:54;99737.50;;;38.37;21.49
58072;BME280;60383;46.626;18.866;2022-08-19T11:02:20;99733.13;;;38.02;21.99
58072;BME280;60383;46.626;18.866;2022-08-19T11:04:45;99733.53;;;38.41;21.62
58072;BME280;60383;46.626;18.866;2022-08-19T11:07:10;99727.75;;;38.13;21.76
58072;BME280;60383;46.626;18.866;2022-08-19T11:09:38;99724.09;;;38.69;21.85
58072;BME280;60383;46.626;18.866;2022-08-19T11:14:27;99742.66;;;38.88;21.66
58072;BME280;60383;46.626;18.866;2022-08-19T11:16:56;99736.09;;;38.59;20.95
58072;BME280;60383;46.626;18.866;2022-08-19T11:19:22;99738.31;;;38.94;20.65
58072;BME280;60383;46.626;18.866;2022-08-19T11:21:50;99749.38;;;38.79;21.07
58072;BME280;60383;46.626;18.866;2022-08-19T11:24:21;99747.19;;;38.89;20.49
58072;BME280;60383;46.626;18.866;2022-08-19T11:26:49;99744.56;;;38.83;20.50
58072;BME280;60383;46.626;18.866;2022-08-19T11:29:18;99745.13;;;38.32;21.16
58072;BME280;60383;46.626;18.866;2022-08-19T11:31:47;99746.38;;;38.47;21.22
58072;BME280;60383;46.626;18.866;2022-08-19T11:34:16;99752.34;;;37.89;22.07
58072;BME280;60383;46.626;18.866;2022-08-19T11:36:44;99748.81;;;37.34;22.06
58072;BME280;60383;46.626;18.866;2022-08-19T11:39:11;99738.47;;;37.29;21.86
58072;BME280;60383;46.626;18.866;2022-08-19T11:41:37;99743.47;;;37.20;22.55
58072;BME280;60383;46.626;18.866;2022-08-19T11:44:03;99758.31;;;37.13;23.29
58072;BME280;60383;46.626;18.866;2022-08-19T11:46:36;99750.03;;;36.87;23.85
58072;BME280;60383;46.626;18.866;2022-08-19T11:49:03;99733.13;;;37.28;22.13
58072;BME280;60383;46.626;18.866;2022-08-19T11:51:30;99725.31;;;37.62;22.53
58072;BME280;60383;46.626;18.866;2022-08-19T11:53:57;99726.72;;;38.05;22.26
58072;BME280;60383;46.626;18.866;2022-08-19T11:56:23;99714.91;;;38.07;22.12
58072;BME280;60383;46.626;18.866;2022-08-19T11:58:50;99713.06;;;38.39;21.73
58072;BME280;60383;46.626;18.866;2022-08-19T12:01:19;99708.81;;;38.08;22.09
58072;BME280;60383;46.626;18.866;2022-08-19T12:03:45;99716.00;;;38.02;22.52
58072;BME280;60383;46.626;18.866;2022-08-19T12:06:14;99720.41;;;37.62;22.64
58072;BME280;60383;46.626;18.866;2022-08-19T12:08:41;99723.91;;;37.43;23.43
58072;BME280;60383;46.626;18.866;2022-08-19T12:11:08;99731.81;;;37.25;23.67
58072;BME280;60383;46.626;18.866;2022-08-19T12:13:34;99737.69;;;36.95;24.29
58072;BME280;60383;46.626;18.866;2022-08-19T12:16:00;99741.75;;;36.94;24.26
58072;BME280;60383;46.626;18.866;2022-08-19T12:18:32;99734.91;;;37.20;24.32
58072;BME280;60383;46.626;18.866;2022-08-19T12:20:57;99737.56;;;37.37;25.06
58072;BME280;60383;46.626;18.866;2022-08-19T12:23:25;99741.03;;;37.55;24.92
58072;BME280;60383;46.626;18.866;2022-08-19T12:25:51;99739.13;;;37.47;24.54
58072;BME280;60383;46.626;18.866;2022-08-19T12:28:21;99755.41;;;37.59;24.82
58072;BME280;60383;46.626;18.866;2022-08-19T12:30:48;99755.63;;;37.42;24.75
58072;BME280;60383;46.626;18.866;2022-08-19T12:33:16;99758.56;;;37.33;25.28
58072;BME280;60383;46.626;18.866;2022-08-19T12:35:43;99767.88;;;37.30;25.10
58072;BME280;60383;46.626;18.866;2022-08-19T12:38:10;99764.63;;;37.19;25.22
58072;BME280;60383;46.626;18.866;2022-08-19T12:40:36;99771.88;;;37.16;25.60
58072;BME280;60383;46.626;18.866;2022-08-19T12:43:02;99761.16;;;37.13;25.60
58072;BME280;60383;46.626;18.866;2022-08-19T12:45:27;99775.63;;;36.96;25.82
58072;BME280;60383;46.626;18.866;2022-08-19T12:47:53;99775.72;;;36.66;26.18
58072;BME280;60383;46.626;18.866;2022-08-19T12:50:18;99770.25;;;36.60;25.91
58072;BME280;60383;46.626;18.866;2022-08-19T12:52:44;99779.34;;;36.54;25.34
58072;BME280;60383;46.626;18.866;2022-08-19T12:55:10;99774.41;;;36.42;24.97
58072;BME280;60383;46.626;18.866;2022-08-19T12:57:36;99774.53;;;36.24;24.02
58072;BME280;60383;46.626;18.866;2022-08-19T13:02:37;99778.31;;;36.37;23.51
58072;BME280;60383;46.626;18.866;2022-08-19T13:05:04;99775.34;;;36.25;23.62
58072;BME280;60383;46.626;18.866;2022-08-19T13:07:31;99780.72;;;36.26;23.36
58072;BME280;60383;46.626;18.866;2022-08-19T13:09:57;99788.16;;;36.19;23.91